Time;durP1;ratioP1;P1;durP2;ratioP2;P2;SDS_P1;SDS_P2;PMS_P1;PMS_P2;Temp;Humidity;BMP_temperature;BMP_pressure;BME280_temperature;BME280_humidity;BME280_pressure;Samples;Min_cycle;Max_cycle;Signal;HPM_P1;HPM_P2
2022/12/15 00:39:35;;;;;;;27.48;19.05;;;-3.90;99.90;;;;;;5071236;28;20233;-73
2022/12/15 00:42:02;;;;;;;29.00;17.90;;;-3.90;99.90;;;;;;5074567;28;20206;-72
2022/12/15 00:44:32;;;;;;;27.92;18.38;;;-3.90;99.90;;;;;;5070708;28;20232;-71
2022/12/15 00:46:59;;;;;;;30.63;18.40;;;-3.90;99.90;;;;;;5069960;28;20667;-71
2022/12/15 01:20:19;;;;;;;32.28;17.60;;;-3.90;99.90;;;;;;5047748;28;20687;-74
2022/12/15 01:22:56;;;;;;;29.88;17.67;;;-3.90;99.90;;;;;;5054432;28;20196;-72
2022/12/15 01:25:26;;;;;;;27.63;17.10;;;-3.90;99.90;;;;;;5054856;28;20245;-70
2022/12/15 01:27:56;;;;;;;22.35;15.43;;;-3.90;99.90;;;;;;5050793;28;20193;-71
2022/12/15 01:30:34;;;;;;;27.27;15.88;;;-3.80;99.90;;;;;;5048582;28;20239;-73
2022/12/15 01:33:01;;;;;;;32.20;19.70;;;-3.80;99.90;;;;;;5060723;28;20290;-71
2022/12/15 01:35:41;;;;;;;27.67;17.77;;;-3.80;99.90;;;;;;5050604;28;20659;-72
2022/12/15 01:38:08;;;;;;;28.17;18.20;;;-3.70;99.90;;;;;;5052723;28;20209;-71
2022/12/15 01:41:08;;;;;;;24.73;15.93;;;-3.70;99.90;;;;;;5053588;28;20759;-74
2022/12/15 01:43:37;;;;;;;26.05;17.80;;;-3.70;99.90;;;;;;5052418;28;20234;-71
2022/12/15 01:46:06;;;;;;;27.10;17.38;;;-3.70;99.90;;;;;;5039152;28;20281;-71
2022/12/15 01:48:41;;;;;;;26.55;15.48;;;-3.70;99.90;;;;;;5050335;28;20191;-72
2022/12/15 01:51:28;;;;;;;28.00;18.15;;;-3.70;99.90;;;;;;5049818;28;20662;-72
2022/12/15 01:53:59;;;;;;;31.33;19.05;;;-3.70;99.90;;;;;;5049460;28;20213;-71
2022/12/15 01:59:52;;;;;;;31.70;19.90;;;-3.70;99.90;;;;;;5067291;28;20345;-71
2022/12/15 02:02:32;;;;;;;27.20;16.50;;;-3.70;99.90;;;;;;5059504;28;20243;-71
2022/12/15 02:05:00;;;;;;;24.80;17.92;;;-3.60;99.90;;;;;;5054227;28;20672;-72
2022/12/15 02:08:06;;;;;;;29.92;19.30;;;-3.60;99.90;;;;;;5054329;28;20291;-73
2022/12/15 02:10:55;;;;;;;25.00;16.65;;;-3.60;99.90;;;;;;5053165;28;20223;-73
2022/12/15 02:13:31;;;;;;;30.42;17.67;;;-3.60;99.90;;;;;;5036013;28;20207;-71
2022/12/15 02:16:06;;;;;;;30.40;18.00;;;-3.60;99.90;;;;;;5053019;28;20210;-70
2022/12/15 02:18:40;;;;;;;31.83;17.80;;;-3.50;99.90;;;;;;5046219;28;20226;-71
2022/12/15 02:21:13;;;;;;;27.98;17.02;;;-3.60;99.90;;;;;;5052553;28;20244;-69
2022/12/15 02:24:15;;;;;;;30.38;19.65;;;-3.60;99.90;;;;;;5053417;28;20249;-71
2022/12/15 02:27:21;;;;;;;29.23;18.40;;;-3.60;99.90;;;;;;5048887;28;20246;-71
2022/12/15 02:30:17;;;;;;;23.95;16.75;;;-3.60;99.90;;;;;;5050176;28;20347;-72
2022/12/15 02:32:50;;;;;;;30.92;19.83;;;-3.60;99.90;;;;;;5052518;28;20322;-70
2022/12/15 02:35:24;;;;;;;34.95;16.33;;;-3.60;99.90;;;;;;5051056;28;20239;-71
2022/12/15 02:37:51;;;;;;;26.38;18.10;;;-3.60;99.90;;;;;;5048310;28;20202;-73
2022/12/15 02:40:20;;;;;;;29.75;18.73;;;-3.60;99.90;;;;;;5052340;28;20256;-71
2022/12/15 02:42:51;;;;;;;23.58;15.20;;;-3.60;99.90;;;;;;5050151;28;20199;-72
2022/12/15 02:49:02;;;;;;;27.15;15.98;;;-3.60;99.90;;;;;;5045013;28;20197;-71
2022/12/15 02:51:48;;;;;;;27.98;17.02;;;-3.50;99.90;;;;;;5054220;28;20234;-73
2022/12/15 02:54:59;;;;;;;26.88;17.73;;;-3.60;99.90;;;;;;5036969;28;20218;-72
2022/12/15 02:57:41;;;;;;;30.85;17.90;;;-3.60;99.90;;;;;;5287214;22;20236;-70
2022/12/15 03:00:11;;;;;;;27.95;18.63;;;-3.60;99.90;;;;;;5067552;28;20683;-69
2022/12/15 03:02:41;;;;;;;29.02;17.27;;;-3.60;99.90;;;;;;5069500;28;20297;-72
2022/12/15 03:05:12;;;;;;;30.42;19.98;;;-3.50;99.90;;;;;;5061313;28;20207;-70
2022/12/15 03:07:41;;;;;;;28.30;16.95;;;-3.50;99.90;;;;;;5059129;28;20206;-70
2022/12/15 03:10:11;;;;;;;25.65;16.58;;;-3.50;99.90;;;;;;5066971;28;20309;-72
2022/12/15 03:12:38;;;;;;;24.60;17.10;;;-3.50;99.90;;;;;;5064290;28;20661;-70
2022/12/15 03:15:06;;;;;;;27.95;17.45;;;-3.50;99.90;;;;;;5076289;28;20281;-73
2022/12/15 03:17:33;;;;;;;27.27;18.08;;;-3.50;99.90;;;;;;5069617;28;20268;-72
2022/12/15 03:20:00;;;;;;;30.42;19.35;;;-3.50;99.90;;;;;;5070190;28;20229;-72
2022/12/15 03:22:28;;;;;;;27.73;17.80;;;-3.50;99.90;;;;;;5070163;28;20612;-70
2022/12/15 03:24:55;;;;;;;29.48;16.20;;;-3.50;99.90;;;;;;5073077;28;20217;-69
2022/12/15 03:27:24;;;;;;;31.05;21.35;;;-3.50;99.90;;;;;;5063896;28;20205;-72
2022/12/15 03:29:51;;;;;;;29.20;19.73;;;-3.50;99.90;;;;;;5075844;28;20222;-69
2022/12/15 03:32:18;;;;;;;29.77;17.10;;;-3.50;99.90;;;;;;5073269;28;20199;-71
2022/12/15 03:34:45;;;;;;;29.73;18.02;;;-3.50;99.90;;;;;;5067410;28;20549;-70
2022/12/15 03:37:12;;;;;;;27.27;17.33;;;-3.50;99.90;;;;;;5074278;28;20203;-71
2022/12/15 03:39:40;;;;;;;34.60;19.27;;;-3.60;99.90;;;;;;5067648;28;20234;-72
2022/12/15 03:42:07;;;;;;;27.55;17.67;;;-3.50;99.90;;;;;;5070735;28;20207;-71
2022/12/15 03:44:34;;;;;;;26.48;17.05;;;-3.50;99.90;;;;;;5072509;28;20199;-70
2022/12/15 03:47:01;;;;;;;29.77;17.60;;;-3.50;99.90;;;;;;5073834;28;20229;-71
2022/12/15 03:49:28;;;;;;;27.80;18.67;;;-3.50;99.90;;;;;;5069465;28;20234;-72
2022/12/15 03:51:55;;;;;;;32.92;18.13;;;-3.50;99.90;;;;;;5074321;28;20204;-72
2022/12/15 03:54:21;;;;;;;35.38;20.45;;;-3.50;99.90;;;;;;5071697;28;20211;-69
2022/12/15 03:56:50;;;;;;;26.17;17.13;;;-3.40;99.90;;;;;;5074540;28;20195;-70
2022/12/15 03:59:16;;;;;;;28.10;17.70;;;-3.40;99.90;;;;;;5075004;28;20233;-70
2022/12/15 04:01:47;;;;;;;27.02;18.15;;;-3.50;99.90;;;;;;5075667;28;20220;-72
2022/12/15 04:04:14;;;;;;;35.55;21.50;;;-3.50;99.90;;;;;;5074708;28;20284;-70
2022/12/15 04:06:41;;;;;;;26.63;17.35;;;-3.50;99.90;;;;;;5074278;28;20202;-69
2022/12/15 04:09:08;;;;;;;29.67;18.48;;;-3.50;99.90;;;;;;5069229;28;20217;-72
2022/12/15 04:11:35;;;;;;;36.58;19.05;;;-3.50;99.90;;;;;;5074170;28;20281;-70
2022/12/15 04:14:03;;;;;;;24.95;17.13;;;-3.50;99.90;;;;;;5074376;28;20195;-71
2022/12/15 04:16:30;;;;;;;29.75;18.60;;;-3.50;99.90;;;;;;5070538;28;20211;-71
2022/12/15 04:21:42;;;;;;;23.05;15.57;;;-3.50;99.90;;;;;;5065581;28;20213;-72
2022/12/15 05:32:45;;;;;;;25.50;17.25;;;-3.50;99.90;;;;;;5083792;28;20210;-72
2022/12/15 05:35:13;;;;;;;25.80;18.33;;;-3.40;99.90;;;;;;5086076;28;20625;-72
2022/12/15 05:37:40;;;;;;;36.88;20.92;;;-3.40;99.90;;;;;;5087128;28;20240;-70
2022/12/15 05:40:09;;;;;;;26.83;18.58;;;-3.40;99.90;;;;;;5078655;28;20636;-72
2022/12/15 05:42:35;;;;;;;25.90;17.40;;;-3.40;99.90;;;;;;5088065;28;20566;-71
2022/12/15 05:45:04;;;;;;;26.45;18.10;;;-3.40;99.90;;;;;;5091207;28;20202;-73
2022/12/15 05:47:31;;;;;;;37.17;18.58;;;-3.30;99.90;;;;;;5087435;28;20207;-73
2022/12/15 05:49:57;;;;;;;31.55;19.10;;;-3.30;99.90;;;;;;5085066;28;20253;-73
2022/12/15 05:52:26;;;;;;;31.90;18.90;;;-3.20;99.90;;;;;;5092217;28;20625;-72
2022/12/15 05:54:52;;;;;;;27.17;17.75;;;-3.30;99.90;;;;;;5083949;28;20207;-70
2022/12/15 05:57:19;;;;;;;27.65;18.52;;;-3.30;99.90;;;;;;5087570;28;20300;-73
2022/12/15 05:59:46;;;;;;;31.58;20.02;;;-3.30;99.90;;;;;;5088647;28;20302;-69
2022/12/15 06:02:13;;;;;;;28.52;18.08;;;-3.40;99.90;;;;;;5093050;28;20623;-71
2022/12/15 06:04:40;;;;;;;23.88;18.33;;;-3.40;99.90;;;;;;5090038;28;20211;-73
2022/12/15 06:07:07;;;;;;;36.17;18.33;;;-3.30;99.90;;;;;;5082030;28;20198;-70
2022/12/15 06:09:35;;;;;;;31.48;18.77;;;-3.30;99.90;;;;;;5085945;28;20219;-70
2022/12/15 06:12:02;;;;;;;31.27;18.70;;;-3.30;99.90;;;;;;5079155;28;20236;-72
2022/12/15 06:14:30;;;;;;;27.58;19.27;;;-3.30;99.90;;;;;;5086205;28;20238;-72
2022/12/15 06:16:57;;;;;;;28.98;19.27;;;-3.30;99.90;;;;;;5095571;28;20268;-69
2022/12/15 06:19:24;;;;;;;28.38;17.83;;;-3.30;99.90;;;;;;5089220;28;20259;-69
2022/12/15 06:21:51;;;;;;;27.50;17.73;;;-3.30;99.90;;;;;;5094686;28;20202;-69
2022/12/15 06:24:18;;;;;;;28.45;18.50;;;-3.30;99.90;;;;;;5094069;28;20450;-69
2022/12/15 06:26:46;;;;;;;26.40;17.90;;;-3.30;99.90;;;;;;5093549;28;20342;-70
2022/12/15 06:29:14;;;;;;;33.42;17.63;;;-3.30;99.90;;;;;;5086149;28;20316;-73
2022/12/15 06:31:42;;;;;;;27.25;17.83;;;-3.30;99.90;;;;;;5083084;28;20203;-71
2022/12/15 06:34:13;;;;;;;34.55;18.80;;;-3.30;99.90;;;;;;5087359;28;20194;-71
2022/12/15 06:36:40;;;;;;;27.70;19.75;;;-3.40;99.90;;;;;;5090468;28;20226;-70
2022/12/15 06:39:09;;;;;;;26.05;19.75;;;-3.30;99.90;;;;;;5090420;28;20260;-69
2022/12/15 06:41:36;;;;;;;31.35;20.90;;;-3.30;99.90;;;;;;5082616;28;20293;-71
2022/12/15 06:44:04;;;;;;;30.73;17.88;;;-3.40;99.90;;;;;;5081913;28;20628;-72
2022/12/15 06:46:33;;;;;;;26.00;17.70;;;-3.30;99.90;;;;;;5087089;28;20206;-70
2022/12/15 06:49:01;;;;;;;30.00;19.45;;;-3.30;99.90;;;;;;5083697;28;20601;-68
2022/12/15 06:51:28;;;;;;;24.17;17.85;;;-3.30;99.90;;;;;;5088921;28;20198;-69
2022/12/15 06:53:55;;;;;;;28.60;18.45;;;-3.30;99.90;;;;;;5087929;28;20199;-71
2022/12/15 06:56:24;;;;;;;25.23;19.08;;;-3.30;99.90;;;;;;5081897;28;20234;-71
2022/12/15 06:58:52;;;;;;;27.85;19.73;;;-3.30;99.90;;;;;;5098437;28;20214;-69
2022/12/15 07:01:23;;;;;;;28.90;18.80;;;-3.30;99.90;;;;;;5093352;28;20634;-70
2022/12/15 07:03:51;;;;;;;29.25;19.35;;;-3.30;99.90;;;;;;5084300;28;20237;-70
2022/12/15 07:06:18;;;;;;;25.40;17.23;;;-3.30;99.90;;;;;;5094539;28;20567;-70
2022/12/15 07:08:51;;;;;;;31.40;19.48;;;-3.20;99.90;;;;;;5089461;28;20207;-74
2022/12/15 07:11:19;;;;;;;31.17;19.23;;;-3.20;99.90;;;;;;5102162;28;20566;-72
2022/12/15 07:13:49;;;;;;;28.40;19.67;;;-3.10;99.90;;;;;;5101116;28;20198;-71
2022/12/15 07:16:16;;;;;;;36.38;19.00;;;-3.10;99.90;;;;;;5097608;28;20201;-71
2022/12/15 07:18:45;;;;;;;30.08;19.45;;;-3.10;99.90;;;;;;5090494;28;20207;-72
2022/12/15 07:21:12;;;;;;;25.13;17.17;;;-3.10;99.90;;;;;;5089982;28;20209;-70
2022/12/15 07:23:39;;;;;;;25.95;18.50;;;-3.10;99.90;;;;;;5089130;28;20297;-71
2022/12/15 07:26:07;;;;;;;33.22;19.00;;;-3.10;99.90;;;;;;5103766;28;20623;-72
2022/12/15 07:28:35;;;;;;;26.17;17.23;;;-3.00;99.90;;;;;;5087762;28;20207;-72
2022/12/15 07:31:03;;;;;;;24.33;17.48;;;-3.00;99.90;;;;;;5105830;28;20281;-73
2022/12/15 07:33:32;;;;;;;26.15;18.10;;;-3.00;99.90;;;;;;5104221;28;20266;-72
2022/12/15 07:36:01;;;;;;;35.67;17.58;;;-3.10;99.90;;;;;;5090294;28;20289;-71
2022/12/15 07:38:29;;;;;;;32.22;17.40;;;-3.10;99.90;;;;;;5103620;28;20294;-71
2022/12/15 07:40:59;;;;;;;27.05;20.30;;;-2.90;99.90;;;;;;5096916;28;20526;-71
2022/12/15 07:43:27;;;;;;;25.48;18.55;;;-3.00;99.90;;;;;;5093166;28;20634;-71
2022/12/15 07:45:54;;;;;;;27.05;19.08;;;-3.00;99.90;;;;;;5099069;28;20201;-72
2022/12/15 07:48:22;;;;;;;30.25;17.90;;;-3.00;99.90;;;;;;5081750;28;20199;-69
2022/12/15 07:50:50;;;;;;;29.25;18.40;;;-3.00;99.90;;;;;;5088238;28;20688;-68
2022/12/15 07:53:18;;;;;;;27.38;18.15;;;-2.90;99.90;;;;;;5082045;28;20624;-69
2022/12/15 07:55:55;;;;;;;27.13;17.10;;;-2.90;99.90;;;;;;5095111;28;20680;-70
2022/12/15 07:58:22;;;;;;;27.65;18.90;;;-2.90;99.90;;;;;;5085272;28;20214;-70
2022/12/15 08:00:49;;;;;;;28.60;18.33;;;-2.90;99.90;;;;;;5083936;28;20241;-71
2022/12/15 08:03:15;;;;;;;22.83;16.90;;;-2.80;99.90;;;;;;5089834;28;20199;-69
2022/12/15 08:05:42;;;;;;;27.73;18.85;;;-2.70;99.90;;;;;;5079801;28;20285;-70
2022/12/15 08:08:10;;;;;;;24.92;17.65;;;-2.50;99.90;;;;;;5098886;28;20200;-69
2022/12/15 08:10:40;;;;;;;23.25;14.88;;;-2.30;99.90;;;;;;5093068;28;20219;-69
2022/12/15 08:13:07;;;;;;;19.33;13.55;;;-2.20;99.90;;;;;;5094185;28;20221;-69
2022/12/15 08:15:36;;;;;;;22.58;15.60;;;-2.10;99.90;;;;;;5085412;28;20199;-69
2022/12/15 08:18:03;;;;;;;23.15;15.90;;;-2.00;99.90;;;;;;5097070;28;20198;-70
2022/12/15 08:20:30;;;;;;;21.48;14.95;;;-1.90;99.90;;;;;;5094730;28;20680;-70
2022/12/15 08:23:00;;;;;;;18.02;14.43;;;-1.80;99.90;;;;;;5084514;28;20285;-70
2022/12/15 08:25:28;;;;;;;24.00;16.13;;;-1.70;99.90;;;;;;5087601;28;20652;-69
2022/12/15 08:27:56;;;;;;;24.05;13.02;;;-1.60;99.90;;;;;;5087146;28;20209;-70
2022/12/15 08:30:23;;;;;;;23.25;15.00;;;-1.30;99.90;;;;;;5076875;28;20285;-71
2022/12/15 08:32:51;;;;;;;18.92;13.70;;;-1.10;99.90;;;;;;5096581;28;20678;-69
2022/12/15 08:35:18;;;;;;;22.27;13.95;;;-1.10;99.90;;;;;;5103144;28;20194;-70
2022/12/15 08:37:45;;;;;;;15.98;13.32;;;-0.90;99.90;;;;;;5098981;28;20294;-70
2022/12/15 08:40:13;;;;;;;19.67;14.38;;;-0.80;99.90;;;;;;5106436;28;20229;-70
2022/12/15 08:42:41;;;;;;;21.98;14.48;;;-0.50;99.90;;;;;;5093948;28;20649;-68
2022/12/15 08:45:11;;;;;;;26.73;13.73;;;-0.40;99.90;;;;;;5102605;28;20297;-69
2022/12/15 08:47:38;;;;;;;17.75;11.40;;;-0.10;99.90;;;;;;5091655;28;20632;-69
2022/12/15 08:50:06;;;;;;;14.82;12.13;;;0.30;99.90;;;;;;5079532;28;20217;-72
2022/12/15 08:52:33;;;;;;;18.20;12.25;;;0.80;99.90;;;;;;5088135;28;20251;-73
2022/12/15 08:55:00;;;;;;;19.15;15.00;;;1.60;99.90;;;;;;5097927;28;20347;-70
2022/12/15 08:57:28;;;;;;;15.20;11.88;;;2.00;99.90;;;;;;5135560;22;20234;-62
2022/12/15 08:59:54;;;;;;;18.35;12.05;;;2.70;99.90;;;;;;5101458;28;20678;-65
2022/12/15 09:02:22;;;;;;;14.02;11.52;;;3.30;99.90;;;;;;5097791;28;20208;-65
2022/12/15 09:04:50;;;;;;;13.45;11.82;;;3.70;99.90;;;;;;5114919;28;20205;-62
2022/12/15 09:07:17;;;;;;;21.55;11.60;;;3.70;99.90;;;;;;5110460;28;20218;-62
2022/12/15 09:09:43;;;;;;;18.67;12.93;;;3.30;99.90;;;;;;5107923;28;20257;-62
2022/12/15 09:12:12;;;;;;;20.90;13.38;;;2.90;99.90;;;;;;5104825;28;20274;-61
2022/12/15 09:14:40;;;;;;;16.10;12.13;;;2.50;99.90;;;;;;5102441;28;20206;-62
2022/12/15 09:17:06;;;;;;;17.67;11.40;;;2.30;99.90;;;;;;5101399;28;20328;-62
2022/12/15 09:19:35;;;;;;;14.90;11.23;;;2.40;99.90;;;;;;5099332;28;20202;-62
2022/12/15 09:22:04;;;;;;;19.10;13.30;;;2.60;99.90;;;;;;5096283;28;20288;-61
2022/12/15 09:24:30;;;;;;;16.73;10.93;;;2.40;99.90;;;;;;5099631;28;20209;-61
2022/12/15 09:26:57;;;;;;;15.45;11.15;;;2.20;99.90;;;;;;5086155;28;20225;-61
2022/12/15 09:29:24;;;;;;;19.10;12.57;;;1.70;99.90;;;;;;5088473;28;20203;-61
2022/12/15 09:31:51;;;;;;;17.52;12.43;;;2.40;99.90;;;;;;5092515;28;20213;-62
2022/12/15 09:34:18;;;;;;;14.27;10.40;;;3.20;99.90;;;;;;5088430;28;20605;-62
2022/12/15 09:36:46;;;;;;;14.75;10.82;;;4.10;99.90;;;;;;5089333;28;20219;-64
2022/12/15 09:39:14;;;;;;;14.13;10.13;;;4.50;99.90;;;;;;5092487;28;20201;-63
2022/12/15 09:41:42;;;;;;;16.90;12.00;;;4.50;99.90;;;;;;5090394;28;20260;-63
2022/12/15 09:44:13;;;;;;;15.32;10.07;;;5.30;99.90;;;;;;5088984;28;20208;-63
2022/12/15 09:46:55;;;;;;;18.17;11.85;;;6.40;99.90;;;;;;5078182;28;20604;-62
2022/12/15 09:49:44;;;;;;;15.05;11.05;;;6.30;98.00;;;;;;5089121;28;20263;-62
2022/12/15 09:52:14;;;;;;;21.27;12.00;;;4.90;99.20;;;;;;5094992;28;20207;-63
2022/12/15 09:54:42;;;;;;;17.13;11.95;;;4.70;99.90;;;;;;5093354;28;20592;-62
2022/12/15 09:57:19;;;;;;;14.82;10.40;;;4.90;99.90;;;;;;5093140;28;20239;-62
2022/12/15 10:00:02;;;;;;;18.45;12.15;;;4.90;99.90;;;;;;5092108;28;20226;-62
2022/12/15 10:02:52;;;;;;;23.48;13.35;;;5.40;99.90;;;;;;5097445;28;20234;-61
2022/12/15 10:05:27;;;;;;;19.35;10.55;;;5.50;99.10;;;;;;5087593;28;20222;-63
2022/12/15 10:07:55;;;;;;;17.33;11.18;;;5.30;98.90;;;;;;5095304;28;20724;-62
2022/12/15 10:10:30;;;;;;;19.63;12.15;;;4.70;99.10;;;;;;5094771;28;20197;-61
2022/12/15 10:13:02;;;;;;;14.00;10.75;;;4.80;99.90;;;;;;5093756;28;20226;-63
2022/12/15 10:15:34;;;;;;;13.57;10.30;;;5.20;99.90;;;;;;5094209;28;20276;-62
2022/12/15 10:18:10;;;;;;;14.43;10.77;;;5.10;99.90;;;;;;5094055;28;20232;-63
2022/12/15 10:20:37;;;;;;;19.20;11.05;;;4.60;99.60;;;;;;5091931;28;20211;-62
2022/12/15 10:23:12;;;;;;;17.65;13.55;;;4.70;99.90;;;;;;5099115;28;20201;-62
2022/12/15 10:25:43;;;;;;;13.10;10.30;;;4.40;99.90;;;;;;5090436;28;20552;-62
2022/12/15 10:28:26;;;;;;;22.38;10.57;;;4.40;99.90;;;;;;5096336;28;20225;-62
2022/12/15 10:30:58;;;;;;;18.77;12.38;;;4.30;99.90;;;;;;5092976;28;20205;-61
2022/12/15 10:33:28;;;;;;;21.88;12.88;;;4.40;99.90;;;;;;5094055;28;20281;-60
2022/12/15 10:35:55;;;;;;;14.40;11.30;;;4.40;99.90;;;;;;5093870;28;20198;-61
2022/12/15 10:38:37;;;;;;;20.38;12.20;;;3.40;99.90;;;;;;5094054;28;20218;-62
2022/12/15 10:41:06;;;;;;;23.63;13.02;;;3.10;99.90;;;;;;5104270;28;20214;-81
2022/12/15 10:43:35;;;;;;;13.20;11.65;;;2.80;99.90;;;;;;5106862;28;20213;-80
2022/12/15 10:46:12;;;;;;;18.85;12.00;;;2.60;99.90;;;;;;5105110;28;20198;-84
2022/12/15 10:48:39;;;;;;;16.80;11.75;;;2.60;99.90;;;;;;5105608;28;20221;-84
2022/12/15 10:51:26;;;;;;;24.70;10.63;;;2.80;99.90;;;;;;5107411;28;20201;-83
2022/12/15 10:54:03;;;;;;;16.50;11.15;;;2.50;99.90;;;;;;5098176;28;20212;-83
2022/12/15 10:56:32;;;;;;;18.65;13.32;;;2.30;99.90;;;;;;5102574;28;20206;-81
2022/12/15 10:59:01;;;;;;;13.45;10.93;;;2.40;99.90;;;;;;5098843;28;20202;-84
2022/12/15 11:01:30;;;;;;;13.35;11.52;;;2.30;99.90;;;;;;5091286;28;20227;-83
2022/12/15 11:03:57;;;;;;;26.27;12.95;;;2.50;99.90;;;;;;5092492;28;20644;-84
2022/12/15 11:06:26;;;;;;;17.10;12.10;;;2.60;99.90;;;;;;5087506;28;20257;-81
2022/12/15 11:08:57;;;;;;;15.75;11.20;;;2.70;99.90;;;;;;5084154;28;20209;-82
2022/12/15 11:14:18;;;;;;;21.35;12.70;;;2.60;99.90;;;;;;5104679;28;20214;-79
2022/12/15 11:16:51;;;;;;;18.90;13.30;;;2.40;99.90;;;;;;5103330;28;20206;-80
2022/12/15 11:19:30;;;;;;;19.55;13.15;;;2.30;99.90;;;;;;5098693;28;20207;-78
2022/12/15 11:22:03;;;;;;;16.10;12.63;;;2.30;99.90;;;;;;5093501;28;20294;-81
2022/12/15 11:24:36;;;;;;;18.58;11.05;;;2.30;99.90;;;;;;5090576;28;20266;-82
2022/12/15 11:27:12;;;;;;;15.13;11.18;;;2.40;99.90;;;;;;5082394;28;20238;-83
2022/12/15 11:29:51;;;;;;;26.38;11.23;;;2.40;99.90;;;;;;5085126;28;20198;-79
2022/12/15 11:32:23;;;;;;;16.48;11.55;;;2.40;99.90;;;;;;5085436;28;20222;-85
2022/12/15 11:34:50;;;;;;;19.98;13.35;;;2.50;99.90;;;;;;5081380;28;20278;-83
2022/12/15 11:37:36;;;;;;;20.45;12.05;;;2.50;99.90;;;;;;5081676;28;20307;-82
2022/12/15 11:40:23;;;;;;;17.45;12.50;;;2.50;99.90;;;;;;5095708;28;20262;-83
2022/12/15 11:43:03;;;;;;;18.15;12.45;;;2.50;99.90;;;;;;5081909;28;20209;-86
2022/12/15 11:45:41;;;;;;;16.33;11.95;;;2.40;99.90;;;;;;5093917;28;20208;-83
2022/12/15 11:48:14;;;;;;;13.88;11.45;;;2.40;99.90;;;;;;5082247;28;20214;-82
2022/12/15 11:50:51;;;;;;;19.10;12.38;;;2.40;99.90;;;;;;5089694;28;20226;-85
2022/12/15 11:53:47;;;;;;;15.40;11.70;;;2.50;99.90;;;;;;5077727;28;20195;-85
2022/12/15 11:56:23;;;;;;;20.77;12.48;;;2.60;99.90;;;;;;5086289;28;20254;-84
2022/12/15 11:59:22;;;;;;;18.50;13.10;;;2.60;99.90;;;;;;5099850;28;20232;-81
2022/12/15 12:02:15;;;;;;;20.95;12.55;;;2.70;99.90;;;;;;5106842;28;20250;-85
2022/12/15 12:04:58;;;;;;;16.65;12.55;;;2.90;99.90;;;;;;5105442;28;20651;-84
2022/12/15 12:07:34;;;;;;;37.75;13.40;;;2.80;99.90;;;;;;5103852;28;20671;-84
2022/12/15 12:10:14;;;;;;;15.43;11.30;;;2.80;99.90;;;;;;5108921;28;20266;-84
2022/12/15 12:12:50;;;;;;;21.60;13.65;;;2.60;99.90;;;;;;5097145;28;20198;-83
2022/12/15 12:15:27;;;;;;;16.42;12.23;;;2.70;99.90;;;;;;5113802;28;20205;-83
2022/12/15 12:18:01;;;;;;;11.88;9.50;;;2.70;99.90;;;;;;5108060;28;20245;-79
2022/12/15 12:20:39;;;;;;;17.23;10.80;;;2.60;99.90;;;;;;5110974;28;20222;-83
2022/12/15 12:23:16;;;;;;;19.05;10.98;;;2.80;99.90;;;;;;5102654;27;20202;-85
2022/12/15 12:25:51;;;;;;;17.85;11.43;;;2.70;99.90;;;;;;5112389;28;20221;-82
2022/12/15 12:28:24;;;;;;;13.75;11.15;;;2.90;99.90;;;;;;5110179;28;20257;-84
2022/12/15 12:30:51;;;;;;;19.20;12.30;;;2.80;99.90;;;;;;5105324;28;20265;-85
2022/12/15 12:33:28;;;;;;;15.52;11.95;;;2.70;99.90;;;;;;5104706;28;20265;-84
2022/12/15 12:36:00;;;;;;;17.63;13.50;;;2.80;99.90;;;;;;5102823;28;20199;-85
2022/12/15 12:38:31;;;;;;;16.70;11.75;;;2.80;99.90;;;;;;5110926;28;20309;-85
2022/12/15 12:41:04;;;;;;;17.00;11.85;;;2.90;99.90;;;;;;5110166;28;20218;-83
2022/12/15 12:43:35;;;;;;;17.30;11.77;;;2.70;99.90;;;;;;5104805;27;20212;-85
2022/12/15 12:46:08;;;;;;;18.05;12.95;;;2.70;99.90;;;;;;5108737;28;20235;-84
2022/12/15 12:48:40;;;;;;;15.77;11.00;;;2.80;99.90;;;;;;5104863;28;20210;-82
2022/12/15 12:51:21;;;;;;;15.75;12.60;;;2.70;99.90;;;;;;5113224;27;20257;-79
2022/12/15 12:53:48;;;;;;;16.90;12.32;;;2.70;99.90;;;;;;5121142;27;20186;-81
2022/12/15 12:56:38;;;;;;;15.65;11.85;;;2.50;99.90;;;;;;5110215;28;20210;-81
2022/12/15 12:59:36;;;;;;;24.17;11.90;;;2.50;99.90;;;;;;5114712;28;20334;-82
2022/12/15 13:02:46;;;;;;;13.55;12.07;;;2.60;99.90;;;;;;5110419;28;20222;-80
2022/12/15 13:05:29;;;;;;;18.50;12.57;;;2.70;99.90;;;;;;5115789;27;20182;-80
2022/12/15 13:08:12;;;;;;;19.17;12.80;;;2.50;99.90;;;;;;5111480;28;20247;-80
2022/12/15 13:10:41;;;;;;;19.98;14.40;;;2.60;99.90;;;;;;5113884;28;20186;-80
2022/12/15 13:13:17;;;;;;;16.42;12.38;;;2.50;99.90;;;;;;5118086;28;20258;-80
2022/12/15 13:15:46;;;;;;;16.65;12.82;;;2.60;99.90;;;;;;5113138;28;20257;-79
2022/12/15 13:18:17;;;;;;;18.67;12.95;;;2.60;99.90;;;;;;5116711;28;20397;-82
2022/12/15 13:20:45;;;;;;;18.77;13.02;;;2.60;99.90;;;;;;5112981;28;20262;-79
2022/12/15 13:23:36;;;;;;;17.65;12.70;;;2.60;99.90;;;;;;5116560;28;20183;-83
2022/12/15 13:26:14;;;;;;;14.43;12.00;;;2.60;99.90;;;;;;5113077;28;20261;-85
2022/12/15 13:28:50;;;;;;;18.88;11.88;;;2.70;99.90;;;;;;5107539;28;20317;-83
2022/12/15 13:31:40;;;;;;;13.02;11.07;;;2.80;99.90;;;;;;5110797;28;20618;-85
2022/12/15 13:34:21;;;;;;;18.33;12.20;;;2.80;99.90;;;;;;5109156;28;20229;-83
2022/12/15 13:36:52;;;;;;;17.48;11.93;;;2.80;99.90;;;;;;5108760;28;20603;-85
2022/12/15 13:39:50;;;;;;;17.02;11.90;;;2.70;99.90;;;;;;5109620;28;20278;-84
2022/12/15 13:42:34;;;;;;;14.93;11.90;;;2.60;99.90;;;;;;5105605;28;20304;-86
2022/12/15 13:45:25;;;;;;;41.22;20.65;;;2.60;99.90;;;;;;5109509;28;20209;-84
2022/12/15 13:47:54;;;;;;;23.60;15.23;;;2.60;99.90;;;;;;5107894;28;20221;-80
2022/12/15 13:50:31;;;;;;;15.57;11.48;;;2.60;99.90;;;;;;5108562;28;20544;-85
2022/12/15 13:53:03;;;;;;;20.95;14.10;;;2.60;99.90;;;;;;5104112;28;20270;-81
2022/12/15 13:55:37;;;;;;;23.85;14.18;;;2.50;99.90;;;;;;5107135;28;20224;-83
2022/12/15 13:58:11;;;;;;;17.90;12.50;;;2.50;99.90;;;;;;5100852;28;20316;-84
2022/12/15 14:00:47;;;;;;;19.63;13.23;;;2.60;99.90;;;;;;5104916;28;20209;-82
2022/12/15 14:03:14;;;;;;;19.38;11.65;;;2.50;99.90;;;;;;5100562;28;20198;-83
2022/12/15 14:05:49;;;;;;;14.40;11.70;;;2.50;99.90;;;;;;5106069;28;20251;-84
2022/12/15 14:08:17;;;;;;;17.00;12.82;;;2.70;99.90;;;;;;5101445;28;20273;-85
2022/12/15 14:10:47;;;;;;;23.27;12.82;;;2.50;99.90;;;;;;5099148;28;20314;-87
2022/12/15 14:13:19;;;;;;;22.70;14.43;;;2.70;99.90;;;;;;5110546;28;20269;-85
2022/12/15 14:15:51;;;;;;;19.05;13.32;;;2.60;99.90;;;;;;5109604;28;20214;-85
2022/12/15 14:18:28;;;;;;;22.70;14.75;;;2.70;99.90;;;;;;5110761;28;20403;-85
2022/12/15 14:20:57;;;;;;;19.30;13.23;;;2.60;99.90;;;;;;5109008;28;20202;-86
2022/12/15 14:23:26;;;;;;;23.58;13.75;;;2.60;99.90;;;;;;5108700;28;20243;-85
2022/12/15 14:25:54;;;;;;;16.52;13.13;;;2.60;99.90;;;;;;5106331;28;20632;-84
2022/12/15 14:28:28;;;;;;;21.60;14.07;;;2.50;99.90;;;;;;5108692;28;20285;-84
2022/12/15 14:30:58;;;;;;;16.40;13.48;;;2.60;99.90;;;;;;5101924;28;20195;-84
2022/12/15 14:33:26;;;;;;;20.27;14.02;;;2.50;99.90;;;;;;5110371;28;20218;-84
2022/12/15 14:35:57;;;;;;;18.52;14.43;;;2.50;99.90;;;;;;5107155;28;20616;-85
2022/12/15 14:38:30;;;;;;;21.90;14.55;;;2.50;99.90;;;;;;5108659;28;20740;-84
2022/12/15 14:41:00;;;;;;;17.65;13.82;;;2.50;99.90;;;;;;5106913;28;20262;-86
2022/12/15 14:43:31;;;;;;;26.48;15.38;;;2.30;99.90;;;;;;5111396;28;20210;-82
2022/12/15 14:46:09;;;;;;;23.95;16.42;;;2.20;99.90;;;;;;5112505;28;20205;-83
2022/12/15 14:48:39;;;;;;;35.22;14.50;;;2.20;99.90;;;;;;5109902;28;20247;-82
2022/12/15 14:51:10;;;;;;;21.65;15.73;;;2.20;99.90;;;;;;5109773;28;20247;-82
2022/12/15 14:53:40;;;;;;;20.52;16.20;;;2.00;99.90;;;;;;5109417;28;20223;-84
2022/12/15 14:56:26;;;;;;;16.17;14.02;;;2.00;99.90;;;;;;5105401;28;20194;-85
2022/12/15 14:58:58;;;;;;;19.13;15.32;;;2.10;99.90;;;;;;5098353;28;20647;-84
2022/12/15 15:01:28;;;;;;;24.42;14.45;;;1.90;99.90;;;;;;5104694;28;20221;-84
2022/12/15 15:03:59;;;;;;;24.35;16.23;;;1.80;99.90;;;;;;5108011;28;20216;-85
2022/12/15 15:06:37;;;;;;;23.88;16.23;;;1.70;99.90;;;;;;5103875;28;20229;-83
2022/12/15 15:09:17;;;;;;;22.15;15.60;;;1.70;99.90;;;;;;5106368;28;20200;-85
2022/12/15 15:11:44;;;;;;;21.45;16.23;;;1.60;99.90;;;;;;5106731;28;20206;-84
2022/12/15 15:14:17;;;;;;;25.40;15.60;;;1.60;99.90;;;;;;5107347;28;20197;-85
2022/12/15 15:16:44;;;;;;;27.25;17.90;;;1.80;99.90;;;;;;5103868;28;20222;-84
2022/12/15 15:19:20;;;;;;;21.30;16.85;;;1.70;99.90;;;;;;5105759;28;20500;-84
2022/12/15 15:21:48;;;;;;;21.92;17.92;;;1.70;99.90;;;;;;5101960;28;20234;-83
2022/12/15 15:24:25;;;;;;;19.70;14.90;;;1.70;99.90;;;;;;5099486;28;20225;-85
2022/12/15 15:26:52;;;;;;;22.45;17.85;;;1.70;99.90;;;;;;5103405;28;20317;-83
2022/12/15 15:29:36;;;;;;;24.17;17.25;;;1.60;99.90;;;;;;5107680;28;20214;-83